Time;durP1;ratioP1;P1;durP2;ratioP2;P2;SDS_P1;SDS_P2;PMS_P1;PMS_P2;Temp;Humidity;BMP_temperature;BMP_pressure;BME280_temperature;BME280_humidity;BME280_pressure;Samples;Min_cycle;Max_cycle;Signal;HPM_P1;HPM_P2
2023/03/18 00:02:18;;;;;;;17.70;10.15;;;;;;;;;;5013593;28;20450;-58
2023/03/18 00:04:45;;;;;;;18.05;10.20;;;;;;;;;;5031297;28;20041;-56
2023/03/18 00:07:11;;;;;;;18.90;11.00;;;;;;;;;;5013863;28;20033;-63
2023/03/18 00:09:37;;;;;;;15.90;10.60;;;;;;;;;;5030129;28;20370;-58
2023/03/18 00:12:05;;;;;;;20.75;11.05;;;;;;;;;;5031311;28;20076;-58
2023/03/18 00:14:31;;;;;;;21.13;11.88;;;;;;;;;;5031292;28;20046;-57
2023/03/18 00:16:58;;;;;;;19.83;11.38;;;;;;;;;;5013572;28;20049;-56
2023/03/18 00:19:24;;;;;;;19.63;11.38;;;;;;;;;;5031389;28;20116;-58
2023/03/18 00:21:50;;;;;;;17.35;10.90;;;;;;;;;;5031159;28;20033;-58
2023/03/18 00:24:16;;;;;;;20.00;12.00;;;;;;;;;;5031826;28;20049;-59
2023/03/18 00:26:43;;;;;;;24.23;12.80;;;;;;;;;;5017342;28;20088;-56
2023/03/18 00:29:09;;;;;;;20.38;12.20;;;;;;;;;;5034725;28;20133;-56
2023/03/18 00:31:37;;;;;;;21.77;12.43;;;;;;;;;;5016496;28;20386;-57
2023/03/18 00:34:03;;;;;;;17.25;11.65;;;;;;;;;;5017085;28;20048;-60
2023/03/18 00:36:29;;;;;;;23.67;13.50;;;;;;;;;;5034293;28;20056;-58
2023/03/18 00:38:56;;;;;;;23.40;12.63;;;;;;;;;;5033603;28;20048;-57
2023/03/18 00:41:23;;;;;;;22.80;12.50;;;;;;;;;;5034689;28;20108;-58
2023/03/18 00:43:52;;;;;;;24.58;13.05;;;;;;;;;;5034303;28;20069;-59
2023/03/18 00:46:23;;;;;;;20.30;10.98;;;;;;;;;;5034166;28;20052;-62
2023/03/18 00:48:49;;;;;;;20.10;11.82;;;;;;;;;;5034389;28;20505;-58
2023/03/18 00:51:16;;;;;;;20.67;12.02;;;;;;;;;;5034288;28;20030;-57
2023/03/18 00:53:44;;;;;;;23.83;13.38;;;;;;;;;;5015447;28;20053;-55
2023/03/18 00:56:10;;;;;;;22.38;12.60;;;;;;;;;;5016768;28;20042;-58
2023/03/18 00:58:37;;;;;;;20.05;12.52;;;;;;;;;;5034136;28;20041;-58
2023/03/18 01:01:04;;;;;;;19.67;12.45;;;;;;;;;;5034525;28;20073;-58
2023/03/18 01:03:30;;;;;;;21.60;13.38;;;;;;;;;;5034127;28;20393;-61
2023/03/18 01:05:57;;;;;;;21.50;13.43;;;;;;;;;;4999993;28;20046;-57
2023/03/18 01:08:23;;;;;;;20.80;10.82;;;;;;;;;;5033139;28;20490;-57
2023/03/18 01:10:49;;;;;;;20.88;13.18;;;;;;;;;;5034068;28;20080;-59
2023/03/18 01:13:16;;;;;;;19.27;13.00;;;;;;;;;;4996255;28;20441;-58
2023/03/18 01:15:42;;;;;;;20.70;12.10;;;;;;;;;;5014307;28;20394;-60
2023/03/18 01:18:10;;;;;;;24.85;14.63;;;;;;;;;;5013875;28;20389;-56
2023/03/18 01:20:37;;;;;;;20.52;13.15;;;;;;;;;;5012738;28;20552;-59
2023/03/18 01:23:04;;;;;;;24.50;14.07;;;;;;;;;;5012500;28;20482;-59
2023/03/18 01:25:30;;;;;;;25.30;13.23;;;;;;;;;;5013709;28;20042;-60
2023/03/18 01:27:57;;;;;;;26.23;13.38;;;;;;;;;;5014017;28;20045;-60
2023/03/18 01:30:23;;;;;;;24.42;13.95;;;;;;;;;;5013816;28;20081;-58
2023/03/18 01:32:49;;;;;;;23.63;14.45;;;;;;;;;;5014153;28;20058;-58
2023/03/18 01:35:16;;;;;;;23.55;14.30;;;;;;;;;;5013433;28;20045;-57
2023/03/18 01:37:43;;;;;;;26.80;15.60;;;;;;;;;;5013018;28;20053;-56
2023/03/18 01:40:10;;;;;;;25.00;14.80;;;;;;;;;;5013724;28;20427;-57
2023/03/18 01:42:36;;;;;;;24.15;15.75;;;;;;;;;;5013867;28;20045;-57
2023/03/18 01:45:09;;;;;;;24.17;15.23;;;;;;;;;;5013969;28;20111;-58
2023/03/18 01:47:35;;;;;;;29.00;16.27;;;;;;;;;;5012285;28;20127;-57
2023/03/18 01:50:01;;;;;;;24.85;14.30;;;;;;;;;;5012540;28;20522;-58
2023/03/18 01:52:30;;;;;;;28.52;15.93;;;;;;;;;;5010560;28;20132;-58
2023/03/18 01:55:02;;;;;;;26.70;17.17;;;;;;;;;;5011819;28;20042;-55
2023/03/18 01:57:29;;;;;;;28.70;16.30;;;;;;;;;;5012646;28;20131;-58
2023/03/18 01:59:56;;;;;;;24.88;15.68;;;;;;;;;;5012465;28;20143;-54
2023/03/18 02:02:22;;;;;;;37.30;18.80;;;;;;;;;;5013305;28;20533;-57
2023/03/18 02:04:53;;;;;;;27.83;17.30;;;;;;;;;;5013066;28;20471;-58
2023/03/18 02:07:24;;;;;;;24.40;15.85;;;;;;;;;;5012202;28;20168;-58
2023/03/18 02:09:51;;;;;;;29.67;17.15;;;;;;;;;;5012472;28;20042;-58
2023/03/18 02:12:21;;;;;;;26.73;17.33;;;;;;;;;;5019919;28;20480;-57
2023/03/18 02:14:47;;;;;;;;;;;;;;;;;;5033277;28;20406;-57
2023/03/18 02:17:15;;;;;;;32.30;17.95;;;;;;;;;;5032337;28;20197;-56
2023/03/18 02:19:41;;;;;;;28.35;17.25;;;;;;;;;;5032408;28;20077;-56
2023/03/18 02:22:28;;;;;;;38.58;19.50;;;10.20;99.90;;;;;;5032605;28;20461;-56
2023/03/18 02:25:04;;;;;;;28.38;16.80;;;;;;;;;;5030658;28;20509;-57
2023/03/18 02:27:32;;;;;;;27.58;19.17;;;;;;;;;;4997962;28;20048;-58
2023/03/18 02:30:02;;;;;;;29.33;17.63;;;;;;;;;;5014737;28;20055;-57
2023/03/18 02:32:29;;;;;;;27.00;16.45;;;;;;;;;;5032290;28;20044;-57
2023/03/18 02:34:56;;;;;;;30.85;16.63;;;;;;;;;;5032004;28;20049;-57
2023/03/18 02:37:22;;;;;;;28.52;16.65;;;;;;;;;;5014647;28;20045;-58
2023/03/18 02:39:48;;;;;;;33.65;17.40;;;;;;;;;;5031248;28;20124;-59
2023/03/18 02:42:15;;;;;;;29.40;17.80;;;;;;;;;;5031903;28;20052;-56
2023/03/18 02:44:43;;;;;;;29.63;18.00;;;;;;;;;;5032220;28;20049;-57
2023/03/18 02:47:10;;;;;;;29.40;17.50;;;;;;;;;;5031628;28;20359;-58
2023/03/18 02:49:36;;;;;;;27.92;17.83;;;;;;;;;;5014643;28;20103;-58
2023/03/18 02:52:03;;;;;;;25.50;17.42;;;;;;;;;;5032239;28;20128;-59
2023/03/18 02:54:29;;;;;;;29.40;18.50;;;;;;;;;;5031249;28;20445;-57
2023/03/18 02:59:31;;;;;;;31.35;18.35;;;;;;;;;;4954034;28;20488;-56
2023/03/18 03:01:57;;;;;;;30.27;17.13;;;;;;;;;;4973349;28;20050;-59
2023/03/18 03:04:24;;;;;;;30.65;18.70;;;;;;;;;;4973060;28;20077;-57
2023/03/18 03:06:51;;;;;;;30.63;19.98;;;;;;;;;;4973332;28;20042;-57
2023/03/18 03:09:17;;;;;;;30.73;18.10;;;;;;;;;;4955763;28;20039;-57
2023/03/18 03:11:45;;;;;;;30.23;19.70;;;;;;;;;;4973258;28;20034;-56
2023/03/18 03:14:11;;;;;;;37.03;19.88;;;;;;;;;;4973544;28;20125;-64
2023/03/18 03:16:37;;;;;;;33.38;20.38;;;;;;;;;;4972218;28;20047;-58
2023/03/18 03:19:04;;;;;;;35.83;19.60;;;;;;;;;;4936052;29;20047;-56
2023/03/18 03:21:32;;;;;;;35.40;19.45;;;;;;;;;;4958764;28;20448;-57
2023/03/18 03:23:58;;;;;;;31.55;19.83;;;;;;;;;;4959214;28;20051;-58
2023/03/18 03:26:25;;;;;;;39.38;21.15;;;;;;;;;;4954375;28;20129;-58
2023/03/18 03:28:51;;;;;;;36.22;20.00;;;;;;;;;;4921164;29;20047;-60
2023/03/18 03:31:18;;;;;;;35.03;20.27;;;;;;;;;;4967571;28;20049;-57
2023/03/18 03:33:44;;;;;;;32.92;18.88;;;;;;;;;;4961784;28;20051;-58
2023/03/18 03:36:11;;;;;;;33.75;19.83;;;;;;;;;;4958938;28;20042;-58
2023/03/18 03:38:37;;;;;;;33.15;19.50;;;;;;;;;;4946373;28;20097;-58
2023/03/18 03:41:04;;;;;;;32.70;19.48;;;;;;;;;;4972939;28;20045;-57
2023/03/18 03:43:31;;;;;;;35.55;20.05;;;;;;;;;;4972705;28;20125;-58
2023/03/18 03:45:57;;;;;;;37.33;21.77;;;;;;;;;;4942604;28;20047;-58
2023/03/18 03:48:23;;;;;;;38.25;19.98;;;;;;;;;;4972762;28;20035;-58
2023/03/18 03:50:50;;;;;;;38.72;20.38;;;;;;;;;;4955420;28;20480;-56
2023/03/18 03:53:16;;;;;;;36.40;19.95;;;;;;;;;;4972391;28;20053;-56
2023/03/18 03:55:43;;;;;;;41.47;20.20;;;;;;;;;;4972328;28;20067;-57
2023/03/18 03:58:09;;;;;;;37.85;21.95;;;;;;;;;;4972764;28;20086;-57
2023/03/18 04:00:35;;;;;;;38.15;20.98;;;;;;;;;;4958177;28;20054;-58
2023/03/18 04:03:01;;;;;;;40.33;21.45;;;;;;;;;;4976354;28;20085;-58
2023/03/18 04:05:28;;;;;;;37.95;21.10;;;;;;;;;;4976191;28;20082;-59
2023/03/18 04:07:58;;;;;;;39.03;22.23;;;;;;;;;;4974936;28;20045;-57
2023/03/18 04:10:25;;;;;;;41.88;20.88;;;;;;;;;;4973128;28;20043;-58
2023/03/18 04:12:51;;;;;;;36.35;21.55;;;;;;;;;;4968707;28;20042;-61
2023/03/18 04:15:20;;;;;;;48.72;23.25;;;;;;;;;;4975309;28;20034;-56
2023/03/18 04:17:46;;;;;;;37.80;22.08;;;;;;;;;;4974791;28;20047;-60
2023/03/18 04:20:13;;;;;;;39.70;21.85;;;;;;;;;;4975332;28;20391;-55
2023/03/18 04:22:40;;;;;;;33.72;21.65;;;;;;;;;;4974707;28;20487;-58
2023/03/18 04:25:06;;;;;;;37.20;22.23;;;;;;;;;;4975149;28;20042;-57
2023/03/18 04:27:32;;;;;;;35.78;21.92;;;;;;;;;;4951722;29;20130;-60
2023/03/18 04:29:59;;;;;;;37.90;21.35;;;;;;;;;;4940018;28;20051;-58
2023/03/18 04:32:25;;;;;;;38.40;23.17;;;;;;;;;;4971200;28;20049;-57
2023/03/18 04:34:51;;;;;;;37.63;21.38;;;;;;;;;;4964962;28;20105;-56
2023/03/18 04:37:19;;;;;;;34.70;21.55;;;;;;;;;;4976060;28;20078;-57
2023/03/18 04:39:46;;;;;;;33.50;21.52;;;;;;;;;;4971996;28;20122;-60
2023/03/18 04:42:13;;;;;;;34.38;19.45;;;;;;;;;;4975968;28;20042;-58
2023/03/18 04:44:39;;;;;;;37.05;21.60;;;;;;;;;;4958556;28;20047;-58
2023/03/18 04:47:06;;;;;;;35.63;21.05;;;;;;;;;;4964627;28;20081;-56
2023/03/18 04:49:33;;;;;;;33.90;20.75;;;;;;;;;;4975146;28;20042;-60
2023/03/18 04:51:59;;;;;;;36.17;21.85;;;;;;;;;;4975680;28;20078;-58
2023/03/18 04:54:26;;;;;;;37.75;22.02;;;;;;;;;;4975095;28;20501;-58
2023/03/18 04:56:52;;;;;;;37.47;20.25;;;;;;;;;;4952265;28;20507;-58
2023/03/18 04:59:18;;;;;;;37.72;21.42;;;;;;;;;;4984349;28;20050;-56
2023/03/18 05:01:44;;;;;;;38.10;22.58;;;;;;;;;;4994496;28;20053;-58
2023/03/18 05:04:10;;;;;;;40.42;22.75;;;;;;;;;;4967733;28;20047;-60
2023/03/18 05:06:37;;;;;;;38.40;21.45;;;;;;;;;;4982527;28;20061;-57
2023/03/18 05:09:04;;;;;;;34.10;21.42;;;;;;;;;;4975580;28;20076;-57
2023/03/18 05:11:30;;;;;;;39.88;23.15;;;;;;;;;;4993781;28;20375;-59
2023/03/18 05:13:56;;;;;;;37.92;22.35;;;;;;;;;;4983074;28;20046;-59
2023/03/18 05:16:23;;;;;;;36.53;21.00;;;;;;;;;;4958035;28;20039;-56
2023/03/18 05:18:49;;;;;;;34.63;21.55;;;;;;;;;;4981495;28;20047;-59
2023/03/18 05:21:15;;;;;;;34.42;21.85;;;;;;;;;;4958087;28;20047;-58
2023/03/18 05:23:42;;;;;;;39.05;22.92;;;;;;;;;;4967242;28;20052;-59
2023/03/18 05:26:10;;;;;;;37.97;23.40;;;;;;;;;;4990603;28;20514;-58
2023/03/18 05:28:37;;;;;;;34.58;21.70;;;;;;;;;;4974770;28;20464;-58
2023/03/18 05:31:03;;;;;;;32.60;20.85;;;;;;;;;;4975265;28;20039;-60
2023/03/18 05:33:29;;;;;;;38.72;20.50;;;;;;;;;;4964189;28;20042;-56
2023/03/18 05:35:55;;;;;;;60.38;24.75;;;;;;;;;;4992198;28;20077;-56
2023/03/18 05:38:21;;;;;;;39.90;22.15;;;;;;;;;;4980297;28;20045;-59
2023/03/18 05:40:48;;;;;;;37.70;23.65;;;;;;;;;;4975095;28;20564;-54
2023/03/18 05:43:14;;;;;;;33.70;21.95;;;;;;;;;;4979005;28;20044;-57
2023/03/18 05:45:39;;;;;;;36.80;22.65;;;;;;;;;;4976937;28;20129;-57
2023/03/18 05:48:06;;;;;;;39.35;22.73;;;;;;;;;;4983076;28;20391;-56
2023/03/18 05:50:34;;;;;;;35.60;22.48;;;;;;;;;;4974279;28;20894;-58
2023/03/18 05:53:00;;;;;;;40.63;22.25;;;;;;;;;;4977202;28;20068;-56
2023/03/18 05:55:28;;;;;;;31.58;21.80;;;;;;;;;;4993071;28;20038;-59
2023/03/18 05:57:55;;;;;;;34.30;22.38;;;;;;;;;;4992311;28;20054;-56
2023/03/18 06:00:21;;;;;;;34.35;22.63;;;;;;;;;;4975077;28;20044;-60
2023/03/18 06:02:48;;;;;;;35.33;21.40;;;;;;;;;;4976620;28;20357;-56
2023/03/18 06:05:14;;;;;;;39.30;24.92;;;;;;;;;;4989029;28;20042;-59
2023/03/18 06:07:40;;;;;;;32.55;21.52;;;;;;;;;;4985953;28;20050;-58
2023/03/18 06:10:07;;;;;;;37.72;24.85;;;;;;;;;;4979250;28;20038;-57
2023/03/18 06:12:33;;;;;;;34.72;22.58;;;;;;;;;;4966661;28;20049;-59
2023/03/18 06:14:59;;;;;;;39.35;24.02;;;;;;;;;;4990294;28;20129;-54
2023/03/18 06:17:26;;;;;;;37.90;23.83;;;;;;;;;;5039032;23;20050;-57
2023/03/18 06:19:53;;;;;;;36.13;23.10;;;;;;;;;;4993225;28;20544;-54
2023/03/18 06:22:19;;;;;;;38.88;23.83;;;;;;;;;;4981972;28;20046;-59
2023/03/18 06:24:45;;;;;;;38.13;24.88;;;;;;;;;;4993356;28;20133;-58
2023/03/18 06:27:11;;;;;;;36.78;23.10;;;;;;;;;;4965251;28;20130;-61
2023/03/18 06:29:37;;;;;;;35.03;23.65;;;;;;;;;;4987498;28;20038;-56
2023/03/18 06:32:03;;;;;;;36.83;23.73;;;;;;;;;;4993091;28;20475;-56
2023/03/18 06:34:29;;;;;;;37.25;23.52;;;;;;;;;;4975515;28;20100;-58
2023/03/18 06:36:55;;;;;;;34.55;21.67;;;;;;;;;;4992154;28;20042;-58
2023/03/18 06:39:22;;;;;;;37.88;24.20;;;;;;;;;;4992562;28;20092;-56
2023/03/18 06:41:48;;;;;;;35.70;22.75;;;;;;;;;;4990924;28;20390;-58
2023/03/18 06:44:14;;;;;;;37.85;24.05;;;;;;;;;;4989196;28;20459;-56
2023/03/18 06:46:40;;;;;;;36.45;23.35;;;;;;;;;;4977375;28;20054;-58
2023/03/18 06:49:06;;;;;;;33.63;21.58;;;;;;;;;;4975809;28;20093;-55
2023/03/18 06:51:33;;;;;;;36.63;21.70;;;;;;;;;;4991202;28;20041;-57
2023/03/18 06:53:59;;;;;;;37.47;21.98;;;;;;;;;;4992524;28;20441;-58
2023/03/18 06:56:25;;;;;;;31.73;21.63;;;;;;;;;;4992500;28;20050;-58
2023/03/18 06:58:51;;;;;;;32.05;20.77;;;;;;;;;;4975679;28;20053;-56
2023/03/18 07:01:18;;;;;;;36.35;22.60;;;;;;;;;;4983318;28;20491;-59
2023/03/18 07:03:44;;;;;;;34.22;21.45;;;;;;;;;;4974692;28;20056;-56
2023/03/18 07:06:11;;;;;;;32.65;22.33;;;;;;;;;;4963021;28;20121;-59
2023/03/18 07:08:37;;;;;;;33.03;20.20;;;;;;;;;;4992472;28;20048;-54
2023/03/18 07:11:04;;;;;;;34.95;21.45;;;;;;;;;;4985213;28;20047;-55
2023/03/18 07:13:30;;;;;;;34.38;22.85;;;;;;;;;;4973195;28;20046;-58
2023/03/18 07:15:57;;;;;;;33.00;22.25;;;;;;;;;;4974019;28;20046;-58
2023/03/18 07:18:23;;;;;;;38.58;22.02;;;;;;;;;;4986858;28;20057;-60
2023/03/18 07:20:49;;;;;;;35.78;21.98;;;;;;;;;;4952381;28;20039;-54
2023/03/18 07:23:15;;;;;;;38.22;23.70;;;;;;;;;;4991849;28;20050;-56
2023/03/18 07:25:43;;;;;;;37.03;22.48;;;;;;;;;;4973732;28;20368;-55
2023/03/18 07:28:09;;;;;;;38.58;24.20;;;;;;;;;;4972282;28;20443;-56
2023/03/18 07:30:36;;;;;;;34.90;22.83;;;;;;;;;;4989948;28;20081;-59
2023/03/18 07:33:02;;;;;;;35.03;22.85;;;;;;;;;;4976318;28;20051;-54
2023/03/18 07:35:29;;;;;;;37.05;23.33;;;;;;;;;;4994793;28;20042;-58
2023/03/18 07:37:55;;;;;;;40.75;25.10;;;;;;;;;;4992307;28;20133;-57
2023/03/18 07:40:22;;;;;;;37.42;23.95;;;;;;;;;;4995828;28;20049;-60
2023/03/18 07:42:50;;;;;;;40.78;24.20;;;;;;;;;;4995615;28;20096;-58
2023/03/18 07:45:17;;;;;;;40.25;24.52;;;;;;;;;;4971007;28;20104;-57
2023/03/18 07:47:43;;;;;;;42.08;24.88;;;;;;;;;;4995066;28;20077;-58
2023/03/18 07:50:09;;;;;;;41.40;25.83;;;;;;;;;;4992337;28;20042;-57
2023/03/18 07:52:36;;;;;;;39.33;24.83;;;;;;;;;;4976907;28;20462;-58
2023/03/18 07:55:03;;;;;;;46.40;26.40;;;;;;;;;;4994832;28;20486;-57
2023/03/18 07:57:29;;;;;;;47.90;26.23;;;;;;;;;;4995875;28;20487;-57
2023/03/18 07:59:55;;;;;;;37.67;23.95;;;;;;;;;;4996260;28;20096;-55
2023/03/18 08:02:22;;;;;;;40.42;24.65;;;;;;;;;;4978453;28;20491;-56
2023/03/18 08:04:48;;;;;;;36.17;23.90;;;;;;;;;;4990466;28;20048;-58
2023/03/18 08:07:14;;;;;;;39.53;26.90;;;;;;;;;;4995436;28;20061;-57
2023/03/18 08:09:40;;;;;;;43.70;27.17;;;;;;;;;;4975358;28;20093;-58
2023/03/18 08:12:07;;;;;;;47.95;27.98;;;;;;;;;;4978157;28;20053;-58
2023/03/18 08:14:33;;;;;;;51.40;30.35;;;;;;;;;;4995205;28;20048;-58
2023/03/18 08:16:59;;;;;;;46.95;27.73;;;;;;;;;;4986545;28;20054;-58
2023/03/18 08:19:26;;;;;;;54.88;31.52;;;;;;;;;;4969878;28;20046;-58
2023/03/18 08:21:52;;;;;;;50.28;32.35;;;;;;;;;;4993468;28;20051;-57
2023/03/18 08:24:19;;;;;;;54.75;32.90;;;;;;;;;;4960634;28;20046;-56
2023/03/18 08:26:46;;;;;;;51.50;31.02;;;;;;;;;;4968554;28;20051;-57
2023/03/18 08:29:12;;;;;;;52.83;30.88;;;;;;;;;;4958813;28;20047;-57
2023/03/18 08:31:38;;;;;;;55.50;34.60;;;;;;;;;;4979438;28;20042;-58
2023/03/18 08:34:04;;;;;;;51.75;33.75;;;;;;;;;;4974026;28;20045;-57
2023/03/18 08:36:31;;;;;;;55.40;32.42;;;;;;;;;;4968175;28;20383;-59
2023/03/18 08:38:57;;;;;;;51.75;32.78;;;;;;;;;;4994977;28;20049;-60
2023/03/18 08:41:24;;;;;;;52.05;33.67;;;;;;;;;;4994715;28;20042;-56
2023/03/18 08:43:51;;;;;;;52.00;33.97;;;;;;;;;;4992994;28;20050;-58
2023/03/18 08:46:17;;;;;;;50.95;33.05;;;;;;;;;;4981245;28;20043;-60
2023/03/18 08:48:44;;;;;;;54.25;33.08;;;;;;;;;;4975700;28;20085;-56
2023/03/18 08:51:10;;;;;;;50.70;32.70;;;;;;;;;;4989985;28;20049;-53
2023/03/18 08:53:37;;;;;;;50.58;32.33;;;;;;;;;;4992045;28;20073;-59
2023/03/18 08:56:05;;;;;;;42.00;29.08;;;;;;;;;;4993495;28;20042;-58
2023/03/18 08:58:32;;;;;;;43.30;27.10;;;;;;;;;;4993845;28;20042;-58
2023/03/18 09:00:59;;;;;;;47.22;29.85;;;;;;;;;;4992179;28;20144;-58
2023/03/18 09:03:25;;;;;;;43.95;27.88;;;;;;;;;;4970424;28;20185;-58
2023/03/18 09:05:52;;;;;;;47.20;31.75;;;;;;;;;;4994029;28;20046;-57
2023/03/18 09:08:18;;;;;;;54.13;32.90;;;;;;;;;;4976135;28;20546;-60
2023/03/18 09:10:45;;;;;;;57.13;33.60;;;;;;;;;;4977424;28;20417;-57
2023/03/18 09:13:11;;;;;;;47.17;29.08;;;;;;;;;;4948489;28;20388;-61
2023/03/18 09:15:37;;;;;;;43.42;27.20;;;;;;;;;;4972376;28;20061;-56
2023/03/18 09:18:04;;;;;;;39.28;25.02;;;;;;;;;;4994648;28;20141;-57
2023/03/18 09:20:31;;;;;;;45.00;28.15;;;;;;;;;;4993856;28;20087;-60
2023/03/18 09:22:58;;;;;;;39.00;26.02;;;;;;;;;;4992192;28;20479;-58
2023/03/18 09:25:24;;;;;;;40.53;24.52;;;;;;;;;;4985210;28;20529;-55
2023/03/18 09:27:50;;;;;;;40.53;23.67;;;;;;;;;;4978778;28;20054;-57
2023/03/18 09:30:17;;;;;;;34.40;22.08;;;;;;;;;;4984827;28;20042;-56
2023/03/18 09:32:43;;;;;;;33.72;20.30;;;;;;;;;;4996246;28;20382;-55
2023/03/18 09:35:10;;;;;;;31.05;21.13;;;;;;;;;;4978809;28;20058;-56
2023/03/18 09:37:36;;;;;;;37.45;23.65;;;;;;;;;;4992814;28;20039;-58
2023/03/18 09:40:04;;;;;;;31.38;18.98;;;;;;;;;;4993887;28;20046;-57
2023/03/18 09:42:36;;;;;;;28.23;21.15;;;;;;;;;;4991058;28;20113;-56
2023/03/18 09:45:06;;;;;;;30.10;22.02;;;;;;;;;;4995536;28;20125;-56
2023/03/18 09:47:47;;;;;;;37.70;22.67;;;;;;;;;;4990456;28;20049;-57
2023/03/18 09:50:26;;;;;;;38.55;23.98;;;;;;;;;;4985267;28;20046;-56
2023/03/18 09:52:52;;;;;;;36.30;22.42;;;;;;;;;;4977854;23;20448;-57
2023/03/18 09:55:18;;;;;;;29.65;21.90;;;;;;;;;;4953753;28;20101;-53
2023/03/18 09:57:46;;;;;;;33.53;20.67;;;;;;;;;;4955701;29;20055;-57
2023/03/18 10:00:19;;;;;;;26.50;18.65;;;;;;;;;;4956296;29;20047;-57
2023/03/18 10:03:21;;;;;;;20.55;15.23;;;;;;;;;;4955841;28;20035;-60
2023/03/18 10:06:01;;;;;;;19.15;13.45;;;;;;;;;;4895874;29;20641;-58
2023/03/18 10:08:38;;;;;;;22.00;15.10;;;;;;;;;;4896165;29;20050;-55
2023/03/18 10:11:11;;;;;;;21.52;12.48;;;15.10;99.90;;;;;;4877046;29;20463;-56
2023/03/18 10:13:55;;;;;;;23.55;14.73;;;;;;;;;;4877779;29;20557;-57
2023/03/18 10:16:26;;;;;;;22.73;14.32;;;;;;;;;;4878421;29;20051;-57
2023/03/18 10:18:53;;;;;;;24.20;14.60;;;;;;;;;;4879050;29;20053;-57
2023/03/18 10:21:50;;;;;;;22.30;15.57;;;14.40;99.90;;;;;;4878483;29;20530;-58
2023/03/18 10:24:34;;;;;;;27.23;15.98;;;;;;;;;;4897856;29;20045;-57
2023/03/18 10:27:07;;;;;;;22.75;15.98;;;;;;;;;;4897104;29;20064;-57
2023/03/18 10:30:01;;;;;;;23.58;16.75;;;;;;;;;;4880769;29;20051;-57
2023/03/18 10:32:49;;;;;;;26.17;16.65;;;;;;;;;;4897478;29;20060;-57
2023/03/18 10:35:41;;;;;;;21.42;15.35;;;;;;;;;;4896958;29;20371;-57
2023/03/18 10:38:28;;;;;;;20.98;14.20;;;;;;;;;;4895802;29;20052;-60
2023/03/18 10:40:55;;;;;;;24.35;16.38;;;15.20;99.90;;;;;;4953699;29;20051;-65
2023/03/18 10:43:23;;;;;;;23.88;15.88;;;;;;;;;;4956531;29;20420;-68
2023/03/18 10:45:55;;;;;;;26.00;14.23;;;;;;;;;;4955442;29;20043;-68
2023/03/18 10:48:26;;;;;;;18.23;13.07;;;;;;;;;;4955301;29;20051;-67
2023/03/18 10:51:01;;;;;;;20.50;14.23;;;;;;;;;;4938954;29;20404;-67
2023/03/18 10:53:29;;;;;;;19.88;13.85;;;;;;;;;;4955871;28;20054;-67
2023/03/18 10:55:56;;;;;;;18.13;14.77;;;;;;;;;;4939688;29;20051;-69
2023/03/18 10:58:25;;;;;;;18.63;13.63;;;;;;;;;;4955924;29;20436;-69
2023/03/18 11:00:54;;;;;;;17.05;12.00;;;;;;;;;;4922773;29;20046;-68
2023/03/18 11:03:28;;;;;;;16.63;10.70;;;;;;;;;;4938121;29;20083;-67
2023/03/18 11:05:56;;;;;;;16.75;11.50;;;;;;;;;;4923213;29;20050;-66
2023/03/18 11:08:33;;;;;;;20.98;11.40;;;;;;;;;;4936563;29;20511;-67
2023/03/18 11:11:18;;;;;;;15.43;10.45;;;;;;;;;;4938901;29;20043;-67
2023/03/18 11:13:49;;;;;;;15.50;10.45;;;;;;;;;;4919082;29;20055;-67
2023/03/18 11:16:59;;;;;;;14.85;9.07;;;15.60;99.90;;;;;;4919664;29;20152;-67
2023/03/18 11:19:37;;;;;;;15.50;9.52;;;;;;;;;;4909339;29;20094;-67
2023/03/18 11:22:10;;;;;;;15.00;9.02;;;;;;;;;;4931985;29;20362;-70
2023/03/18 11:24:38;;;;;;;15.27;8.65;;;;;;;;;;4970852;28;20075;-67
2023/03/18 11:27:14;;;;;;;13.30;8.90;;;;;;;;;;4966791;28;20043;-67
2023/03/18 11:29:42;;;;;;;11.02;6.68;;;;;;;;;;4953553;29;20473;-68
2023/03/18 11:32:23;;;;;;;10.23;7.18;;;;;;;;;;4955429;29;20122;-67
2023/03/18 11:34:54;;;;;;;9.82;6.45;;;;;;;;;;4954858;29;20460;-67
2023/03/18 11:37:20;;;;;;;12.77;6.88;;;;;;;;;;4938040;29;20094;-68
2023/03/18 11:39:47;;;;;;;10.65;6.40;;;;;;;;;;4954024;29;20039;-68
2023/03/18 11:42:20;;;;;;;14.05;7.53;;;;;;;;;;4934906;29;20036;-68
2023/03/18 11:44:48;;;;;;;11.18;6.95;;;;;;;;;;4935419;29;20111;-68
2023/03/18 11:47:29;;;;;;;11.57;6.90;;;;;;;;;;4935126;29;20097;-68
2023/03/18 11:49:56;;;;;;;10.65;6.75;;;;;;;;;;4919776;29;20043;-68
2023/03/18 11:52:37;;;;;;;9.32;6.70;;;;;;;;;;4922837;29;20051;-68
2023/03/18 11:55:07;;;;;;;10.35;7.00;;;;;;;;;;4955273;29;20095;-68
2023/03/18 11:57:42;;;;;;;8.95;6.40;;;;;;;;;;4970559;28;20424;-68
2023/03/18 12:00:16;;;;;;;7.53;5.55;;;;;;;;;;4938632;29;20116;-68
2023/03/18 12:02:45;;;;;;;9.38;5.95;;;;;;;;;;4954274;29;20046;-68
2023/03/18 12:05:21;;;;;;;8.73;5.95;;;;;;;;;;4955078;29;20054;-68
2023/03/18 12:07:47;;;;;;;8.45;5.63;;;;;;;;;;4939062;29;20039;-66
2023/03/18 12:10:18;;;;;;;8.32;5.40;;;;;;;;;;4938718;29;20121;-67
2023/03/18 12:12:54;;;;;;;11.02;6.55;;;;;;;;;;4954506;29;20043;-68
2023/03/18 12:15:20;;;;;;;8.90;5.60;;;;;;;;;;4954736;29;20053;-68
2023/03/18 12:18:05;;;;;;;9.25;4.78;;;17.40;99.90;;;;;;4954373;29;20090;-68
2023/03/18 12:20:51;;;;;;;11.55;6.20;;;;;;;;;;4956562;28;20047;-69
2023/03/18 12:23:31;;;;;;;9.98;6.75;;;;;;;;;;4941546;29;20098;-69
2023/03/18 12:26:16;;;;;;;;;;;17.10;99.90;;;;;;4941797;29;20043;-70
2023/03/18 12:29:16;;;;;;;11.05;5.47;;;17.60;99.90;;;;;;4958157;29;20401;-69
2023/03/18 12:32:10;;;;;;;32.67;6.57;;;;;;;;;;4883416;29;20557;-70
2023/03/18 12:34:47;;;;;;;5.10;3.40;;;;;;;;;;4868519;29;20056;-69
2023/03/18 12:37:14;;;;;;;11.27;4.30;;;;;;;;;;4898510;29;20055;-69
2023/03/18 12:39:55;;;;;;;6.80;4.25;;;;;;;;;;4883313;29;20345;-69
2023/03/18 12:42:30;;;;;;;8.30;4.63;;;;;;;;;;4884269;29;20064;-69
2023/03/18 12:45:11;;;;;;;9.90;4.70;;;17.30;99.90;;;;;;4899089;29;20044;-69
2023/03/18 12:47:44;;;;;;;7.78;5.13;;;;;;;;;;4867788;29;20064;-68
2023/03/18 12:50:18;;;;;;;10.20;5.22;;;;;;;;;;4883059;29;20045;-69
2023/03/18 12:52:54;;;;;;;12.07;5.97;;;17.40;99.90;;;;;;4883573;29;20445;-69
2023/03/18 12:55:29;;;;;;;8.23;4.85;;;;;;;;;;4899445;29;20056;-71
2023/03/18 12:58:00;;;;;;;9.70;5.18;;;;;;;;;;4883250;29;20056;-70
2023/03/18 13:00:36;;;;;;;8.57;4.93;;;;;;;;;;4883260;29;20056;-70
2023/03/18 13:03:31;;;;;;;10.32;5.10;;;17.20;99.90;;;;;;4898564;29;20060;-69
2023/03/18 13:05:57;;;;;;;10.98;5.72;;;;;;;;;;4883118;29;20048;-70
2023/03/18 13:08:23;;;;;;;8.90;6.10;;;;;;;;;;4938337;29;20059;-68
2023/03/18 13:10:53;;;;;;;10.55;5.93;;;;;;;;;;4956447;29;20524;-71
2023/03/18 13:13:21;;;;;;;9.88;7.28;;;;;;;;;;4957526;29;20086;-70
2023/03/18 13:15:51;;;;;;;13.15;8.77;;;;;;;;;;4957562;29;20502;-69
2023/03/18 13:18:38;;;;;;;17.20;8.73;;;;;;;;;;4956598;29;20054;-69
2023/03/18 13:21:09;;;;;;;16.25;9.07;;;;;;;;;;4957464;29;20039;-69
2023/03/18 13:23:56;;;;;;;16.40;9.30;;;;;;;;;;4957506;29;20043;-69
2023/03/18 13:27:12;;;;;;;27.42;10.40;;;16.60;99.90;;;;;;4957387;29;20035;-69
2023/03/18 13:30:00;;;;;;;17.55;9.27;;;;;;;;;;4898439;29;20435;-68
2023/03/18 13:32:41;;;;;;;12.85;8.82;;;;;;;;;;4898375;29;20100;-68
2023/03/18 13:35:35;;;;;;;15.13;9.18;;;;;;;;;;4882643;29;20047;-68
2023/03/18 13:38:17;;;;;;;13.68;7.75;;;;;;;;;;4898491;29;20544;-69
2023/03/18 13:40:49;;;;;;;11.68;7.80;;;;;;;;;;4882537;29;20052;-67
2023/03/18 13:43:18;;;;;;;12.15;6.38;;;17.30;99.90;;;;;;4882806;29;20480;-68
2023/03/18 13:45:46;;;;;;;7.60;5.20;;;;;;;;;;4882033;29;20060;-69
2023/03/18 13:48:32;;;;;;;10.15;4.60;;;;;;;;;;4882349;29;20048;-69
2023/03/18 13:50:59;;;;;;;10.48;5.30;;;;;;;;;;4897281;29;20474;-69
2023/03/18 13:53:30;;;;;;;9.77;5.25;;;;;;;;;;4882151;29;20481;-68
2023/03/18 13:55:59;;;;;;;8.57;4.88;;;;;;;;;;4898131;29;20052;-69
2023/03/18 13:58:26;;;;;;;8.30;4.80;;;;;;;;;;4897544;29;20049;-66
2023/03/18 14:00:55;;;;;;;9.10;5.22;;;;;;;;;;4897426;29;20571;-68
2023/03/18 14:03:28;;;;;;;10.07;4.85;;;;;;;;;;4913226;29;20489;-67
2023/03/18 14:06:03;;;;;;;7.78;4.45;;;;;;;;;;4965775;28;20357;-67
2023/03/18 14:08:45;;;;;;;10.63;4.47;;;;;;;;;;4955557;29;20046;-68
2023/03/18 14:11:21;;;;;;;6.43;4.63;;;;;;;;;;4955949;29;20046;-69
2023/03/18 14:13:47;;;;;;;9.98;4.95;;;;;;;;;;4957072;29;20051;-69
2023/03/18 14:16:19;;;;;;;6.57;4.30;;;16.90;99.90;;;;;;4955566;29;20047;-69
2023/03/18 14:18:45;;;;;;;7.80;6.22;;;;;;;;;;4955166;29;20384;-62
2023/03/18 14:21:26;;;;;;;8.27;5.35;;;;;;;;;;4956193;29;20039;-60
2023/03/18 14:24:09;;;;;;;14.40;7.03;;;;;;;;;;4955301;29;20506;-64
2023/03/18 14:26:36;;;;;;;9.45;6.93;;;;;;;;;;4954969;29;20480;-59
2023/03/18 14:29:05;;;;;;;11.30;7.38;;;;;;;;;;4956134;29;20055;-60
2023/03/18 14:31:31;;;;;;;10.98;7.10;;;;;;;;;;4954800;29;20045;-60
2023/03/18 14:34:01;;;;;;;17.45;9.23;;;;;;;;;;4956214;29;20086;-58